createdAt,value
2018-12-15T00:00:41.111Z,50.33
2018-12-15T00:03:09.359Z,45.30
2018-12-15T00:05:37.574Z,45.28
2018-12-15T00:08:06.192Z,45.48
2018-12-15T00:18:23.128Z,42.10
2018-12-15T00:20:51.371Z,41.80
2018-12-15T00:23:19.585Z,45.55
2018-12-15T00:25:47.823Z,44.05
2018-12-15T00:28:16.032Z,40.95
2018-12-15T00:30:57.555Z,42.50
2018-12-15T00:33:25.755Z,40.17
2018-12-15T00:35:54.101Z,36.93
2018-12-15T00:38:22.335Z,40.17
2018-12-15T00:41:03.714Z,38.60
2018-12-15T00:43:44.662Z,46.53
2018-12-15T00:46:12.891Z,40.25
2018-12-15T00:48:41.070Z,39.25
2018-12-15T00:51:21.898Z,39.35
2018-12-15T00:53:50.143Z,41.63
2018-12-15T00:56:18.418Z,40.08
2018-12-15T00:58:46.655Z,43.33
2018-12-15T01:01:27.242Z,42.88
2018-12-15T01:03:55.481Z,37.58
2018-12-15T01:06:23.860Z,43.68
2018-12-15T01:08:52.059Z,43.58
2018-12-15T01:11:32.916Z,45.45
2018-12-15T01:14:01.130Z,42.20
2018-12-15T01:16:29.366Z,47.03
2018-12-15T01:18:57.586Z,41.28
2018-12-15T01:21:32.018Z,46.65
2018-12-15T01:24:00.263Z,40.92
2018-12-15T01:26:28.494Z,40.88
2018-12-15T01:28:56.682Z,43.75
2018-12-15T01:31:26.685Z,44.03
2018-12-15T01:33:54.887Z,40.88
2018-12-15T01:36:23.126Z,42.38
2018-12-15T01:38:51.350Z,45.10
2018-12-15T01:41:32.076Z,44.00
2018-12-15T01:44:00.295Z,45.67
2018-12-15T01:46:28.477Z,44.35
2018-12-15T01:48:56.846Z,45.92
2018-12-15T01:51:40.020Z,44.85
2018-12-15T01:54:08.249Z,47.95
2018-12-15T01:56:36.454Z,44.18
2018-12-15T01:59:04.614Z,41.45
2018-12-15T02:01:47.028Z,44.35
2018-12-15T02:04:15.292Z,43.63
2018-12-15T02:06:43.473Z,44.48
2018-12-15T02:09:11.677Z,45.03
2018-12-15T02:11:53.131Z,43.45
2018-12-15T02:14:21.322Z,46.48
2018-12-15T02:16:49.579Z,44.40
2018-12-15T02:19:17.777Z,51.92
2018-12-15T02:21:59.562Z,47.23
2018-12-15T02:24:27.761Z,44.88
2018-12-15T02:26:55.987Z,47.62
2018-12-15T02:29:24.231Z,48.52
2018-12-15T02:32:04.854Z,46.98
2018-12-15T02:34:33.100Z,47.03
2018-12-15T02:37:14.464Z,49.75
2018-12-15T02:39:42.682Z,44.65
2018-12-15T02:42:24.066Z,45.65
2018-12-15T02:44:52.216Z,44.77
2018-12-15T02:47:20.439Z,54.20
2018-12-15T02:49:48.611Z,50.95
2018-12-15T02:52:16.830Z,51.30
2018-12-15T02:54:45.042Z,48.60
2018-12-15T02:57:13.309Z,52.48
2018-12-15T02:59:42.312Z,52.80
2018-12-15T03:02:10.593Z,47.98
2018-12-15T03:04:42.362Z,54.23
2018-12-15T03:07:10.593Z,51.95
2018-12-15T03:09:38.791Z,51.70
2018-12-15T03:12:19.832Z,49.53
2018-12-15T03:14:48.061Z,52.90
2018-12-15T03:17:16.353Z,51.25
2018-12-15T03:19:44.513Z,57.27
2018-12-15T03:22:12.704Z,53.38
2018-12-15T03:24:53.999Z,54.50
2018-12-15T03:27:22.428Z,49.63
2018-12-15T03:29:56.443Z,52.78
2018-12-15T03:32:24.710Z,53.20
2018-12-15T03:34:52.927Z,57.67
2018-12-15T03:37:21.105Z,56.63
2018-12-15T03:39:49.328Z,52.38
2018-12-15T03:42:17.579Z,58.20
2018-12-15T03:44:45.848Z,52.27
2018-12-15T03:47:14.102Z,53.20
2018-12-15T03:49:42.323Z,53.85
2018-12-15T03:52:10.533Z,54.77
2018-12-15T03:54:38.699Z,55.73
2018-12-15T03:57:06.936Z,57.23
2018-12-15T03:59:35.599Z,61.10
2018-12-15T04:02:17.035Z,53.13
2018-12-15T04:04:45.266Z,56.55
2018-12-15T04:07:13.510Z,58.83
2018-12-15T04:09:41.760Z,51.77
2018-12-15T04:12:26.871Z,50.78
2018-12-15T04:14:55.095Z,55.08
2018-12-15T04:17:23.307Z,59.95
2018-12-15T04:19:51.639Z,54.15
2018-12-15T04:22:20.809Z,50.45
2018-12-15T04:24:49.086Z,54.03
2018-12-15T04:27:17.295Z,52.65
2018-12-15T04:29:45.522Z,53.78
2018-12-15T04:32:13.757Z,52.55
2018-12-15T04:34:41.977Z,50.38
2018-12-15T04:37:10.179Z,56.55
2018-12-15T04:39:38.442Z,54.38
2018-12-15T04:42:06.724Z,52.33
2018-12-15T04:44:34.979Z,52.38
2018-12-15T04:47:03.244Z,54.73
2018-12-15T04:49:31.482Z,53.75
2018-12-15T04:52:12.693Z,51.73
2018-12-15T04:54:40.973Z,51.58
2018-12-15T04:57:09.215Z,52.15
2018-12-15T04:59:37.433Z,52.75
2018-12-15T05:02:18.011Z,56.33
2018-12-15T05:04:46.208Z,51.70
2018-12-15T05:07:14.433Z,52.15
2018-12-15T05:09:43.466Z,52.55
2018-12-15T05:12:11.664Z,49.67
2018-12-15T05:14:39.893Z,50.48
2018-12-15T05:17:08.116Z,52.30
2018-12-15T05:19:36.325Z,51.37
2018-12-15T05:22:17.825Z,50.15
2018-12-15T05:24:46.072Z,51.05
2018-12-15T05:27:15.215Z,51.08
2018-12-15T05:29:43.454Z,53.58
2018-12-15T05:32:11.644Z,51.33
2018-12-15T05:34:39.899Z,52.67
2018-12-15T05:37:08.124Z,48.35
2018-12-15T05:39:36.339Z,46.23
2018-12-15T05:42:21.127Z,48.92
2018-12-15T05:44:49.344Z,44.70
2018-12-15T05:47:17.502Z,45.92
2018-12-15T05:49:45.725Z,45.85
2018-12-15T05:52:13.918Z,44.65
2018-12-15T05:54:42.120Z,40.00
2018-12-15T05:57:10.273Z,44.88
2018-12-15T05:59:38.478Z,42.83
2018-12-15T06:02:11.502Z,43.08
2018-12-15T06:04:39.711Z,42.90
2018-12-15T06:07:07.918Z,40.33
2018-12-15T06:09:36.132Z,38.60
2018-12-15T06:12:07.906Z,45.43
2018-12-15T06:14:36.162Z,37.53
2018-12-15T06:17:04.392Z,38.60
2018-12-15T06:19:32.606Z,40.43
2018-12-15T06:22:13.381Z,41.02
2018-12-15T06:24:41.577Z,35.65
2018-12-15T06:27:09.787Z,38.65
2018-12-15T06:29:37.977Z,37.45
2018-12-15T06:32:20.714Z,37.60
2018-12-15T06:34:52.613Z,36.60
2018-12-15T06:37:21.508Z,39.53
2018-12-15T06:39:49.838Z,40.55
2018-12-15T06:42:18.035Z,33.25
2018-12-15T06:44:46.295Z,36.15
2018-12-15T06:47:28.156Z,32.38
2018-12-15T06:49:56.416Z,34.88
2018-12-15T06:52:24.656Z,32.53
2018-12-15T06:54:52.866Z,31.73
2018-12-15T06:57:21.103Z,33.78
2018-12-15T06:59:51.751Z,33.98
2018-12-15T07:02:20.502Z,34.73
2018-12-15T07:04:48.795Z,32.58
2018-12-15T07:07:17.115Z,31.02
2018-12-15T07:09:45.418Z,31.42
2018-12-15T07:12:13.602Z,30.65
2018-12-15T07:14:41.821Z,28.62
2018-12-15T07:17:10.043Z,31.17
2018-12-15T07:19:38.242Z,33.10
2018-12-15T07:22:19.680Z,29.18
2018-12-15T07:24:47.916Z,28.35
2018-12-15T07:27:16.096Z,30.52
2018-12-15T07:29:44.268Z,30.43
2018-12-15T07:32:12.486Z,33.18
2018-12-15T07:34:40.665Z,30.08
2018-12-15T07:37:15.003Z,32.95
2018-12-15T07:39:43.226Z,33.25
2018-12-15T07:42:11.442Z,29.80
2018-12-15T07:44:39.752Z,32.55
2018-12-15T07:47:08.843Z,33.63
2018-12-15T07:49:37.069Z,31.37
2018-12-15T07:52:18.043Z,31.90
2018-12-15T07:54:46.280Z,34.13
2018-12-15T07:57:14.458Z,28.27
2018-12-15T07:59:42.707Z,32.95
2018-12-15T08:02:10.913Z,30.23
2018-12-15T08:04:39.169Z,30.25
2018-12-15T08:07:07.460Z,31.10
2018-12-15T08:09:36.102Z,30.20
2018-12-15T08:12:13.198Z,33.65
2018-12-15T08:14:41.428Z,29.42
2018-12-15T08:17:09.672Z,30.88
2018-12-15T08:19:37.919Z,34.58
2018-12-15T08:22:09.772Z,30.32
2018-12-15T08:24:37.940Z,31.60
2018-12-15T08:27:07.829Z,30.65
2018-12-15T08:29:36.032Z,30.50
2018-12-15T08:32:07.962Z,29.10
2018-12-15T08:34:36.122Z,33.18
2018-12-15T08:37:04.395Z,34.38
2018-12-15T08:39:32.610Z,27.73
2018-12-15T08:42:06.507Z,28.75
2018-12-15T08:44:34.746Z,31.40
2018-12-15T08:47:03.038Z,32.48
2018-12-15T08:49:31.258Z,28.73
2018-12-15T08:52:02.611Z,30.60
2018-12-15T08:54:30.849Z,30.15
2018-12-15T08:56:59.120Z,30.52
2018-12-15T08:59:27.367Z,32.30
2018-12-15T09:01:59.308Z,31.48
2018-12-15T09:04:27.949Z,31.82
2018-12-15T09:07:08.871Z,31.17
2018-12-15T09:09:37.069Z,31.93
2018-12-15T09:12:09.089Z,30.10
2018-12-15T09:14:37.358Z,30.35
2018-12-15T09:17:05.567Z,29.70
2018-12-15T09:19:33.794Z,30.77
2018-12-15T09:22:11.378Z,29.82
2018-12-15T09:24:35.883Z,30.32
2018-12-15T09:27:04.135Z,34.15
2018-12-15T09:29:32.702Z,31.65
2018-12-15T09:32:04.693Z,30.95
2018-12-15T09:34:33.661Z,31.17
2018-12-15T09:37:02.028Z,32.67
2018-12-15T09:39:30.507Z,35.88
2018-12-15T09:42:04.925Z,32.00
2018-12-15T09:44:33.133Z,32.88
2018-12-15T09:47:01.349Z,31.80
2018-12-15T09:49:29.537Z,28.75
2018-12-15T09:52:17.100Z,30.55
2018-12-15T09:54:45.266Z,31.23
2018-12-15T09:57:13.461Z,36.15
2018-12-15T09:59:41.708Z,33.67
2018-12-15T10:02:09.929Z,32.20
2018-12-15T10:04:38.135Z,31.75
2018-12-15T10:07:06.378Z,32.28
2018-12-15T10:09:34.553Z,30.25
2018-12-15T10:12:06.207Z,33.25
2018-12-15T10:14:34.362Z,33.08
2018-12-15T10:17:02.621Z,33.60
2018-12-15T10:19:30.792Z,30.43
2018-12-15T10:22:03.116Z,29.18
2018-12-15T10:24:31.553Z,33.53
2018-12-15T10:26:59.763Z,30.75
2018-12-15T10:29:47.376Z,29.80
2018-12-15T10:32:21.203Z,32.85
2018-12-15T10:34:49.412Z,26.82
2018-12-15T10:37:17.802Z,32.93
2018-12-15T10:39:45.990Z,32.28
2018-12-15T10:42:14.226Z,35.35
2018-12-15T10:44:42.430Z,34.05
2018-12-15T10:47:10.893Z,32.45
2018-12-15T10:49:39.113Z,34.20
2018-12-15T10:52:11.025Z,32.15
2018-12-15T10:54:39.266Z,31.23
2018-12-15T10:57:07.506Z,35.15
2018-12-15T10:59:35.698Z,32.05
2018-12-15T11:02:06.834Z,34.27
2018-12-15T11:04:35.047Z,32.50
2018-12-15T11:07:03.303Z,32.00
2018-12-15T11:09:31.495Z,33.45
2018-12-15T11:12:03.515Z,35.73
2018-12-15T11:14:31.675Z,33.73
2018-12-15T11:16:59.874Z,36.40
2018-12-15T11:19:28.115Z,35.55
2018-12-15T11:21:59.990Z,34.25
2018-12-15T11:24:28.209Z,31.52
2018-12-15T11:26:56.416Z,30.70
2018-12-15T11:29:24.640Z,31.45
2018-12-15T11:31:58.883Z,32.05
2018-12-15T11:34:27.113Z,35.98
2018-12-15T11:36:55.366Z,32.45
2018-12-15T11:39:23.623Z,32.97
2018-12-15T11:41:54.775Z,32.55
2018-12-15T11:44:22.987Z,33.20
2018-12-15T11:46:51.230Z,33.28
2018-12-15T11:49:19.467Z,30.48
2018-12-15T11:51:50.833Z,32.95
2018-12-15T11:54:32.446Z,36.88
2018-12-15T11:57:00.646Z,34.45
2018-12-15T11:59:28.962Z,34.25
2018-12-15T12:02:00.301Z,35.08
2018-12-15T12:04:28.526Z,30.75
2018-12-15T12:06:56.738Z,36.90
2018-12-15T12:09:25.093Z,33.08
2018-12-15T12:11:56.517Z,32.20
2018-12-15T12:14:24.756Z,33.50
2018-12-15T12:16:53.002Z,29.72
2018-12-15T12:19:21.263Z,32.48
2018-12-15T12:21:52.535Z,34.27
2018-12-15T12:24:20.998Z,35.73
2018-12-15T12:26:49.257Z,35.90
2018-12-15T12:29:17.519Z,35.98
2018-12-15T12:31:49.053Z,32.38
2018-12-15T12:34:17.264Z,32.23
2018-12-15T12:36:45.464Z,32.08
2018-12-15T12:39:13.651Z,32.63
2018-12-15T12:41:44.854Z,33.05
2018-12-15T12:44:13.093Z,32.53
2018-12-15T12:46:41.330Z,34.50
2018-12-15T12:49:09.553Z,34.38
2018-12-15T12:51:41.283Z,30.57
2018-12-15T12:54:09.460Z,36.48
2018-12-15T12:56:37.617Z,41.15
2018-12-15T12:59:05.802Z,33.05
2018-12-15T13:01:37.841Z,31.20
2018-12-15T13:04:06.078Z,33.73
2018-12-15T13:06:34.274Z,30.72
2018-12-15T13:09:02.536Z,36.05
2018-12-15T13:11:36.897Z,32.95
2018-12-15T13:14:05.190Z,38.95
2018-12-15T13:16:33.388Z,36.63
2018-12-15T13:19:01.714Z,36.28
2018-12-15T13:21:33.663Z,34.58
2018-12-15T13:24:02.341Z,36.15
2018-12-15T13:26:30.576Z,34.98
2018-12-15T13:28:58.828Z,33.50
2018-12-15T13:31:30.550Z,37.42
2018-12-15T13:33:59.223Z,32.93
2018-12-15T13:36:27.496Z,34.75
2018-12-15T13:38:55.803Z,34.50
2018-12-15T13:41:27.753Z,35.78
2018-12-15T13:43:57.792Z,36.05
2018-12-15T13:46:26.675Z,36.77
2018-12-15T13:48:54.947Z,37.53
2018-12-15T13:51:34.967Z,36.85
2018-12-15T13:54:06.186Z,37.28
2018-12-15T13:56:34.633Z,37.30
2018-12-15T13:59:02.984Z,36.75
2018-12-15T14:01:37.966Z,37.73
2018-12-15T14:04:06.202Z,40.08
2018-12-15T14:06:34.500Z,37.90
2018-12-15T14:09:02.726Z,38.10
2018-12-15T14:11:34.372Z,39.48
2018-12-15T14:14:02.669Z,45.03
2018-12-15T14:16:38.574Z,39.23
2018-12-15T14:19:06.925Z,36.53
2018-12-15T14:21:38.445Z,36.23
2018-12-15T14:24:06.818Z,38.28
2018-12-15T14:26:35.107Z,40.78
2018-12-15T14:29:03.498Z,33.75
2018-12-15T14:31:34.863Z,38.65
2018-12-15T14:34:03.067Z,41.80
2018-12-15T14:36:31.455Z,39.13
2018-12-15T14:38:59.695Z,39.30
2018-12-15T14:41:32.297Z,35.73
2018-12-15T14:44:00.695Z,41.45
2018-12-15T14:46:28.926Z,35.45
2018-12-15T14:48:59.655Z,39.42
2018-12-15T14:51:38.507Z,40.48
2018-12-15T14:54:06.762Z,37.15
2018-12-15T14:56:34.985Z,48.10
2018-12-15T14:59:03.236Z,42.58
2018-12-15T15:01:34.507Z,43.15
2018-12-15T15:04:02.725Z,44.85
2018-12-15T15:06:30.993Z,40.75
2018-12-15T15:08:59.227Z,42.33
2018-12-15T15:11:31.287Z,37.13
2018-12-15T15:13:59.534Z,43.20
2018-12-15T15:16:27.721Z,37.15
2018-12-15T15:18:55.910Z,43.55
2018-12-15T15:21:27.729Z,43.35
2018-12-15T15:23:55.934Z,43.70
2018-12-15T15:26:24.150Z,41.90
2018-12-15T15:28:52.320Z,39.10
2018-12-15T15:31:23.946Z,41.77
2018-12-15T15:33:52.361Z,37.60
2018-12-15T15:36:20.554Z,38.73
2018-12-15T15:38:48.749Z,42.13
2018-12-15T15:41:20.329Z,39.45
2018-12-15T15:43:48.578Z,39.70
2018-12-15T15:46:18.479Z,40.78
2018-12-15T15:48:46.750Z,37.73
2018-12-15T15:51:18.702Z,38.28
2018-12-15T15:53:46.890Z,40.05
2018-12-15T15:56:15.110Z,40.70
2018-12-15T15:58:43.274Z,40.10
2018-12-15T16:01:17.158Z,40.45
2018-12-15T16:03:45.359Z,38.38
2018-12-15T16:06:13.587Z,37.55
2018-12-15T16:08:41.784Z,40.40
2018-12-15T16:11:13.673Z,41.55
2018-12-15T16:13:41.867Z,40.83
2018-12-15T16:19:10.240Z,42.50
2018-12-15T16:21:51.261Z,38.98
2018-12-15T16:24:19.521Z,41.00
2018-12-15T16:27:04.348Z,43.83
2018-12-15T16:29:32.646Z,42.70
2018-12-15T16:32:14.510Z,37.60
2018-12-15T16:34:42.751Z,41.10
2018-12-15T16:37:10.952Z,39.08
2018-12-15T16:39:39.167Z,39.73
2018-12-15T16:42:21.090Z,42.45
2018-12-15T16:44:49.268Z,44.80
2018-12-15T16:47:17.568Z,45.63
2018-12-15T16:49:45.856Z,37.53
2018-12-15T16:52:14.069Z,42.13
2018-12-15T16:54:42.320Z,41.42
2018-12-15T16:57:10.734Z,44.13
2018-12-15T16:59:38.897Z,41.88
2018-12-15T17:02:13.641Z,37.23
2018-12-15T17:04:41.908Z,40.03
2018-12-15T17:07:10.164Z,38.67
2018-12-15T17:09:38.366Z,45.65
2018-12-15T17:12:12.356Z,40.48
2018-12-15T17:14:40.652Z,43.45
2018-12-15T17:17:21.592Z,46.08
2018-12-15T17:19:51.737Z,43.90
2018-12-15T17:22:19.951Z,47.25
2018-12-15T17:24:48.168Z,45.08
2018-12-15T17:27:33.023Z,38.65
2018-12-15T17:30:01.263Z,40.40
2018-12-15T17:32:29.509Z,39.15
2018-12-15T17:34:57.790Z,43.63
2018-12-15T17:37:25.993Z,44.30
2018-12-15T17:39:54.180Z,44.58
2018-12-15T17:42:22.347Z,49.20
2018-12-15T17:44:50.639Z,42.10
2018-12-15T17:47:18.896Z,43.40
2018-12-15T17:49:50.800Z,42.33
2018-12-15T17:52:31.910Z,43.05
2018-12-15T17:55:00.110Z,41.23
2018-12-15T17:57:28.315Z,40.80
2018-12-15T18:00:00.213Z,41.30
2018-12-15T18:02:28.461Z,38.55
2018-12-15T18:04:56.651Z,44.00
2018-12-15T18:07:24.869Z,41.35
2018-12-15T18:09:58.757Z,44.85
2018-12-15T18:12:26.943Z,45.63
2018-12-15T18:14:55.150Z,42.80
2018-12-15T18:17:23.400Z,42.15
2018-12-15T18:19:54.481Z,41.18
2018-12-15T18:22:22.724Z,41.08
2018-12-15T18:24:50.930Z,45.95
2018-12-15T18:27:19.099Z,44.25
2018-12-15T18:29:50.805Z,43.83
2018-12-15T18:32:19.017Z,40.03
2018-12-15T18:34:47.211Z,47.30
2018-12-15T18:37:15.402Z,48.87
2018-12-15T18:39:43.620Z,44.65
2018-12-15T18:42:11.899Z,43.50
2018-12-15T18:44:40.183Z,45.20
2018-12-15T18:47:08.532Z,49.38
2018-12-15T18:49:36.755Z,48.55
2018-12-15T18:52:07.871Z,48.13
2018-12-15T18:54:36.102Z,47.78
2018-12-15T18:57:04.427Z,47.58
2018-12-15T18:59:32.750Z,44.13
2018-12-15T19:02:04.711Z,47.10
2018-12-15T19:04:32.902Z,47.50
2018-12-15T19:07:01.078Z,40.23
2018-12-15T19:09:29.294Z,46.10
2018-12-15T19:12:02.630Z,44.53
2018-12-15T19:14:31.141Z,44.95
2018-12-15T19:16:59.713Z,53.75
2018-12-15T19:19:32.295Z,45.15
2018-12-15T19:22:15.063Z,43.65
2018-12-15T19:24:43.435Z,41.85
2018-12-15T19:27:11.633Z,40.48
2018-12-15T19:29:39.903Z,46.65
2018-12-15T19:32:11.839Z,43.30
2018-12-15T19:34:40.112Z,45.65
2018-12-15T19:37:08.414Z,47.15
2018-12-15T19:39:36.680Z,47.78
2018-12-15T19:42:09.018Z,45.05
2018-12-15T19:44:37.387Z,45.12
2018-12-15T19:47:05.567Z,44.33
2018-12-15T19:49:33.873Z,43.83
2018-12-15T19:52:05.540Z,49.38
2018-12-15T19:54:33.787Z,49.53
2018-12-15T19:57:02.183Z,41.35
2018-12-15T19:59:30.343Z,41.02
2018-12-15T20:05:03.766Z,44.93
2018-12-15T20:07:31.999Z,43.70
2018-12-15T20:10:00.286Z,45.78
2018-12-15T20:12:28.485Z,45.67
2018-12-15T20:14:56.689Z,44.42
2018-12-15T20:17:24.948Z,46.20
2018-12-15T20:19:53.159Z,45.43
2018-12-15T20:22:21.423Z,46.15
2018-12-15T20:24:49.850Z,43.08
2018-12-15T20:27:18.016Z,48.80
2018-12-15T20:29:46.279Z,46.33
2018-12-15T20:32:14.447Z,47.03
2018-12-15T20:37:17.005Z,46.85
2018-12-15T20:39:45.173Z,45.98
2018-12-15T20:42:13.473Z,47.83
2018-12-15T20:44:41.994Z,45.50
2018-12-15T20:47:10.272Z,46.58
2018-12-15T20:49:38.651Z,48.10
2018-12-15T20:52:10.119Z,44.53
2018-12-15T20:54:38.395Z,42.38
2018-12-15T20:57:08.072Z,46.08
2018-12-15T20:59:36.402Z,42.85
2018-12-15T21:02:17.529Z,41.65
2018-12-15T21:04:45.713Z,46.55
2018-12-15T21:07:13.929Z,44.42
2018-12-15T21:09:42.965Z,53.65
2018-12-15T21:12:11.140Z,47.75
2018-12-15T21:14:39.407Z,49.27
2018-12-15T21:17:07.661Z,44.35
2018-12-15T21:19:35.967Z,53.13
2018-12-15T21:22:10.532Z,48.02
2018-12-15T21:24:39.363Z,42.88
2018-12-15T21:27:07.616Z,49.77
2018-12-15T21:29:48.389Z,54.65
2018-12-15T21:32:16.660Z,47.05
2018-12-15T21:34:44.898Z,47.93
2018-12-15T21:37:13.111Z,52.27
2018-12-15T21:39:41.832Z,52.88
2018-12-15T21:42:10.095Z,43.68
2018-12-15T21:44:38.436Z,54.58
2018-12-15T21:47:06.657Z,48.10
2018-12-15T21:49:34.851Z,44.83
2018-12-15T21:52:06.285Z,50.40
2018-12-15T21:54:34.512Z,49.60
2018-12-15T21:57:02.775Z,46.45
2018-12-15T21:59:31.015Z,47.15
2018-12-15T22:02:02.696Z,50.05
2018-12-15T22:04:30.907Z,45.80
2018-12-15T22:06:59.160Z,44.40
2018-12-15T22:09:27.349Z,47.73
2018-12-15T22:11:59.202Z,48.02
2018-12-15T22:14:27.406Z,45.98
2018-12-15T22:16:55.615Z,42.75
2018-12-15T22:19:24.460Z,48.75
2018-12-15T22:22:02.797Z,45.52
2018-12-15T22:24:26.330Z,46.05
2018-12-15T22:26:54.557Z,49.58
2018-12-15T22:29:22.765Z,47.98
2018-12-15T22:31:54.801Z,46.20
2018-12-15T22:34:23.009Z,44.88
2018-12-15T22:36:51.227Z,51.20
2018-12-15T22:39:19.425Z,45.55
2018-12-15T22:41:53.685Z,44.53
2018-12-15T22:44:21.867Z,49.25
2018-12-15T22:46:50.123Z,44.55
2018-12-15T22:49:18.322Z,49.83
2018-12-15T22:51:50.301Z,49.85
2018-12-15T22:54:18.498Z,50.00
2018-12-15T22:56:46.753Z,49.30
2018-12-15T22:59:14.982Z,45.15
2018-12-15T23:01:46.850Z,47.38
2018-12-15T23:04:15.126Z,47.55
2018-12-15T23:06:43.432Z,45.70
2018-12-15T23:09:11.714Z,48.65
2018-12-15T23:11:42.836Z,52.08
2018-12-15T23:14:11.088Z,49.45
2018-12-15T23:16:39.346Z,49.85
2018-12-15T23:19:07.617Z,51.65
2018-12-15T23:21:39.471Z,48.45
2018-12-15T23:24:07.671Z,50.12
2018-12-15T23:26:35.891Z,47.90
2018-12-15T23:29:04.194Z,53.92
2018-12-15T23:31:35.358Z,48.90
2018-12-15T23:34:03.545Z,55.92
2018-12-15T23:36:31.714Z,50.17
2018-12-15T23:38:59.894Z,55.00
2018-12-15T23:41:31.256Z,50.48
2018-12-15T23:43:59.471Z,52.08
2018-12-15T23:46:27.640Z,52.43
2018-12-15T23:48:55.878Z,55.35
2018-12-15T23:51:27.114Z,49.65
2018-12-15T23:53:55.309Z,48.85
2018-12-15T23:56:23.543Z,53.38
2018-12-15T23:58:51.718Z,51.37
